Aérodrome :
LOGIN :

S'inscrire | Disclaimer

   EN    FR    IT 

 










Légende :    VFR   VFR Marginal   IFR   IFR Intensif   IFR Très Intensif
Visi : 
Plafond : 
>= 8 km
>= 3000ft
5 à 8 km
1000 à 3000 ft
1500m à 5 km
500 à 1000 ft
800 à 1500m
200 à 500 ft
< 800m
< 200 ft
Symboles :   Orages  Brouillard  Fortes neiges  Fortes précipitations  Vent > 20 kt
SIGMETs :   Divers  Orages  Givrage  Turbulence  Onde Orograph.  Cendres Volcan.







- Altitude de l'aérodrome : 75 ft
- Code IATA : YEO


EGDY - RNAS Yeovilton

DERNIER METAR :
  • 222350Z 17001KT 3000 BR FEW010 16/15 Q1021 BECMG 500 FG SCT010 RMK YLO1 BECMG RED

METARs EXPIRÉS :
  • 222336Z 18002KT 4000 BR FEW010 16/15 Q1021 BECMG 500 FG SCT010 RMK GRN BECMG RED
  • 222320Z 15003KT 7000 BR FEW010 16/15 Q1021 BECMG 4000 BR SCT010 RMK WHT BECMG GRN
  • 222250Z 16002KT 7000 BR FEW010 17/16 Q1021 BECMG 4000 BR SCT010 RMK WHT BECMG GRN
  • 222220Z 18001KT 7000 HZ FEW010 17/16 Q1021 BECMG 4000 BR SCT010 RMK WHT BECMG GRN
  • 222150Z 18004KT 9000 HZ FEW010 17/16 Q1021 BECMG 4000 BR SCT010 RMK BLU BECMG GRN
  • 222121Z 20004KT 9999 FEW010 SCT035 18/16 Q1021 BECMG 5000 BR SCT010 RMK BLU BECMG GRN

TAF TAF EGDY
Valide du 22 à 18h jusqu'au 23 à 03h UTC


221706Z 2218/2303 19010KT 9999 FEW010 SCT030
BECMG 2220/2222 VRB04KT 5000 BR BKN008
BECMG 2222/2224 3000 BR MIFG SCT005
PROB40 2222/2303 0500 FG SCT000
Pas de NOTAMs connus pour ce terrain.



MET'MAP, la Météo Aéronautique d'un coup d'oeil ! - Copyright ORBIFLY Décembre 2007 - Disclaimer

ORBIFLY MET'MAP TEAM :

Programmation & Développement : Alexandra Zaïnal
Conception & Développement : Baudouin d'Aumeries
Co-Programmation & Développement : Marc-Olivier Méhu
Soutien technique & logistique : Manuel Goepfert

Contact : metmap@orbifly.com




SOURCES & CREDITS :

   NOAA